This demonstration page uses our WeatherBlox Daily Observations layout. Learn more.

38.88101, -77.10428

Hourly Observations for January 23, 2020

Temp ( °F °C ) Dew Point ( °F °C ) Humidity (%) Winds ( mph kmh ) Pressure ( in mb ) Visibility ( mi km ) Precip ( " mm )
12:52 am 00:52 Partly Cloudy 31 -0.6 25 -3.9 79 79 Calm 30.44 1031 10 16.0934 0 0
1:52 am 01:52 Partly Cloudy 29 -1.7 23 -5 78 78 Calm 30.44 1031 10 16.0934 0 0
2:52 am 02:52 Partly Cloudy 30 -1.1 24 -4.4 79 79 Calm 30.43 1031 10 16.0934 0 0
3:52 am 03:52 Partly Cloudy 29 -1.7 24 -4.4 82 82 Calm 30.42 1030 10 16.0934 0 0
4:52 am 04:52 Partly Cloudy 29 -1.7 24 -4.4 82 82 Calm 30.41 1030 10 16.0934 0 0
5:52 am 05:52 Partly Cloudy 29 -1.7 22 -5.6 75 75 Calm 30.4 1030 10 16.0934 0 0
6:52 am 06:52 Mostly Cloudy 29 -1.7 24 -4.4 82 82 Calm 30.42 1030 10 16.0934 0 0
7:52 am 07:52 Mostly Cloudy 29 -1.7 24 -4.4 82 82 NE 3 6 30.42 1030 10 16.0934 0 0
8:52 am 08:52 Mostly Cloudy 32 0 26 -3.3 79 79 Calm 30.44 1031 10 16.0934 0 0
9:52 am 09:52 Cloudy 35 1.7 26 -3.3 70 70 Calm 30.43 1031 9 14.48406 0 0
10:52 am 10:52 Cloudy 37 2.8 24 -4.4 59 59 ENE 5 7 30.43 1031 10 16.0934 0 0
11:52 am 11:52 Cloudy 40 4.4 22 -5.6 49 49 Calm 30.41 1030 10 16.0934 0 0
12:52 pm 12:52 Cloudy 41 5 24 -4.4 51 51 Calm 30.37 1028 10 16.0934 0 0
6:52 pm 18:52 Cloudy 40 4.4 26 -3.3 58 58 ESE 7 11 30.36 1028 10 16.0934 0 0
7:52 pm 19:52 Cloudy 38 3.3 26 -3.3 62 62 Calm 30.37 1028 10 16.0934 0 0
8:52 pm 20:52 Cloudy 39 3.9 23 -5 53 53 Calm 30.36 1028 10 16.0934 0 0
9:52 pm 21:52 Mostly Cloudy 39 3.9 24 -4.4 55 55 Calm 30.35 1028 10 16.0934 0 0
10:52 pm 22:52 Mostly Cloudy 36 2.2 28 -2.2 73 73 ENE 7 11 30.34 1028 10 16.0934 0 0
11:52 pm 23:52 Mostly Cloudy 37 2.8 27 -2.8 67 67 ENE 3 6 30.35 1028 10 16.0934 0 0
11:59 pm 23:59 Cloudy 37 2.8 27 -2.8 67 67 ENE 3 6 30.35 1028 10 16.0934 0 0

Powered by AerisWeather